createdAt,value
2022-11-10T00:01:46.609Z,498.42
2022-11-10T00:04:32.403Z,517.38
2022-11-10T00:07:18.652Z,529.72
2022-11-10T00:10:06.853Z,479.88
2022-11-10T00:12:53.872Z,491.63
2022-11-10T00:16:00.016Z,553.03
2022-11-10T00:18:46.978Z,572.55
2022-11-10T00:21:38.005Z,580.80
2022-11-10T00:24:24.791Z,586.05
2022-11-10T00:27:11.745Z,602.38
2022-11-10T00:29:57.672Z,484.90
2022-11-10T00:32:44.141Z,506.83
2022-11-10T00:35:30.164Z,520.67
2022-11-10T00:50:33.010Z,363.25
2022-11-10T00:53:19.366Z,423.42
2022-11-10T00:56:05.786Z,550.97
2022-11-10T00:58:51.765Z,426.48
2022-11-10T01:01:56.951Z,505.40
2022-11-10T01:05:32.861Z,397.40
2022-11-10T01:08:18.814Z,345.05
2022-11-10T01:11:06.457Z,348.63
2022-11-10T01:13:53.380Z,380.23
2022-11-10T01:16:39.091Z,373.73
2022-11-10T01:19:25.836Z,426.98
2022-11-10T01:22:11.746Z,309.05
2022-11-10T01:24:57.888Z,356.55
2022-11-10T01:27:45.903Z,253.10
2022-11-10T01:30:32.283Z,381.40
2022-11-10T01:33:19.807Z,433.95
2022-11-10T01:36:06.686Z,356.17
2022-11-10T01:38:53.067Z,431.55
2022-11-10T01:41:39.346Z,429.85
2022-11-10T01:44:25.794Z,345.02
2022-11-10T01:47:11.727Z,526.75
2022-11-10T01:49:58.822Z,349.17
2022-11-10T01:52:47.770Z,487.05
2022-11-10T01:55:35.080Z,294.67
2022-11-10T01:58:25.289Z,432.88
2022-11-10T02:01:11.427Z,418.55
2022-11-10T02:04:08.576Z,356.70
2022-11-10T02:06:54.938Z,362.52
2022-11-10T02:09:41.944Z,344.52
2022-11-10T02:12:39.724Z,249.02
2022-11-10T02:15:26.429Z,347.60
2022-11-10T02:18:13.926Z,437.23
2022-11-10T02:21:00.832Z,283.33
2022-11-10T02:23:51.665Z,267.20
2022-11-10T02:26:40.272Z,402.38
2022-11-10T02:29:26.684Z,336.77
2022-11-10T02:32:12.813Z,446.85
2022-11-10T02:34:59.081Z,401.50
2022-11-10T02:37:45.972Z,296.13
2022-11-10T02:40:33.083Z,334.17
2022-11-10T02:43:20.387Z,340.38
2022-11-10T02:46:06.767Z,311.58
2022-11-10T02:48:53.761Z,351.42
2022-11-10T02:51:40.468Z,382.40
2022-11-10T02:54:27.159Z,321.45
2022-11-10T02:57:13.578Z,271.83
2022-11-10T02:59:59.776Z,333.65
2022-11-10T03:02:45.989Z,347.38
2022-11-10T03:05:32.424Z,369.05
2022-11-10T03:08:18.358Z,323.70
2022-11-10T03:11:05.369Z,381.80
2022-11-10T03:14:01.548Z,283.00
2022-11-10T03:16:48.473Z,204.30
2022-11-10T03:19:35.491Z,328.00
2022-11-10T03:22:21.290Z,213.60
2022-11-10T03:25:08.120Z,246.75
2022-11-10T03:27:55.754Z,238.38
2022-11-10T03:30:42.877Z,230.07
2022-11-10T03:33:28.709Z,392.73
2022-11-10T03:36:14.748Z,286.45
2022-11-10T03:39:01.076Z,333.65
2022-11-10T03:41:47.305Z,355.05
2022-11-10T03:44:33.179Z,319.35
2022-11-10T03:47:19.388Z,368.15
2022-11-10T03:50:06.413Z,242.23
2022-11-10T03:52:52.777Z,296.02
2022-11-10T03:55:39.585Z,343.20
2022-11-10T03:58:25.773Z,293.83
2022-11-10T04:01:11.985Z,263.35
2022-11-10T04:03:58.524Z,244.35
2022-11-10T04:07:03.363Z,277.73
2022-11-10T04:09:49.673Z,290.80
2022-11-10T04:12:54.919Z,336.17
2022-11-10T04:15:43.625Z,326.20
2022-11-10T04:18:30.493Z,344.80
2022-11-10T04:21:17.073Z,374.08
2022-11-10T04:24:03.572Z,290.88
2022-11-10T04:26:50.146Z,342.73
2022-11-10T04:29:36.109Z,284.75
2022-11-10T04:32:22.326Z,249.85
2022-11-10T04:35:09.021Z,250.40
2022-11-10T04:37:55.162Z,274.95
2022-11-10T04:40:41.433Z,304.23
2022-11-10T04:43:27.860Z,324.08
2022-11-10T04:46:33.931Z,342.88
2022-11-10T04:49:21.204Z,238.50
2022-11-10T04:52:07.757Z,277.27
2022-11-10T04:54:53.917Z,258.90
2022-11-10T04:57:40.760Z,251.73
2022-11-10T05:00:27.436Z,279.85
2022-11-10T05:03:13.531Z,286.60
2022-11-10T05:06:00.168Z,191.90
2022-11-10T05:08:46.375Z,221.48
2022-11-10T05:11:32.851Z,195.38
2022-11-10T05:14:20.243Z,257.13
2022-11-10T05:17:06.601Z,267.20
2022-11-10T05:19:52.495Z,435.27
2022-11-10T05:22:38.883Z,295.35
2022-11-10T05:25:25.493Z,307.58
2022-11-10T05:28:12.114Z,263.83
2022-11-10T05:30:58.429Z,274.83
2022-11-10T05:33:44.447Z,359.40
2022-11-10T05:36:30.407Z,263.33
2022-11-10T05:39:16.487Z,271.83
2022-11-10T05:42:02.814Z,306.63
2022-11-10T05:44:49.133Z,237.18
2022-11-10T05:47:38.487Z,265.58
2022-11-10T05:50:25.044Z,202.45
2022-11-10T05:53:11.425Z,286.13
2022-11-10T05:56:35.397Z,232.73
2022-11-10T05:59:21.234Z,217.07
2022-11-10T06:02:07.447Z,200.27
2022-11-10T06:04:53.603Z,229.70
2022-11-10T06:07:39.635Z,264.13
2022-11-10T06:10:27.049Z,160.77
2022-11-10T06:13:12.918Z,233.57
2022-11-10T06:15:59.057Z,202.43
2022-11-10T06:18:45.603Z,199.07
2022-11-10T06:21:32.724Z,220.30
2022-11-10T06:24:19.113Z,231.18
2022-11-10T06:27:05.525Z,253.50
2022-11-10T06:29:51.760Z,264.52
2022-11-10T06:32:43.242Z,257.52
2022-11-10T06:35:30.608Z,228.70
2022-11-10T06:38:16.920Z,443.17
2022-11-10T06:41:03.328Z,243.20
2022-11-10T06:43:49.400Z,262.88
2022-11-10T06:46:41.097Z,243.18
2022-11-10T06:49:28.351Z,269.95
2022-11-10T06:52:15.824Z,287.65
2022-11-10T06:55:02.251Z,183.35
2022-11-10T06:57:48.273Z,365.17
2022-11-10T07:00:34.681Z,235.25
2022-11-10T07:03:20.863Z,206.05
2022-11-10T07:06:08.496Z,337.65
2022-11-10T07:08:54.437Z,265.60
2022-11-10T07:11:41.279Z,321.65
2022-11-10T07:14:27.408Z,465.80
2022-11-10T07:17:14.374Z,327.90
2022-11-10T07:20:01.140Z,215.32
2022-11-10T07:22:47.828Z,326.38
2022-11-10T07:25:35.915Z,229.57
2022-11-10T07:28:25.905Z,230.38
2022-11-10T07:31:14.843Z,245.40
2022-11-10T07:34:01.302Z,236.10
2022-11-10T07:36:48.553Z,344.95
2022-11-10T07:39:34.714Z,181.38
2022-11-10T07:42:21.326Z,194.32
2022-11-10T07:45:07.905Z,306.08
2022-11-10T07:48:01.664Z,214.45
2022-11-10T07:50:47.561Z,313.08
2022-11-10T07:53:33.848Z,355.85
2022-11-10T07:56:20.072Z,186.52
2022-11-10T07:59:06.245Z,249.10
2022-11-10T08:01:52.663Z,309.83
2022-11-10T08:04:39.221Z,247.70
2022-11-10T08:07:25.629Z,250.35
2022-11-10T08:10:11.656Z,192.65
2022-11-10T08:12:59.264Z,162.65
2022-11-10T08:15:45.736Z,140.60
2022-11-10T08:18:35.245Z,268.35
2022-11-10T08:21:21.948Z,179.32
2022-11-10T08:24:08.671Z,355.27
2022-11-10T08:26:55.050Z,187.68
2022-11-10T08:29:41.239Z,257.48
2022-11-10T08:32:27.955Z,301.85
2022-11-10T08:35:14.046Z,139.68
2022-11-10T08:38:15.206Z,156.98
2022-11-10T08:41:01.692Z,207.80
2022-11-10T08:43:48.265Z,160.10
2022-11-10T08:46:35.100Z,174.55
2022-11-10T08:49:21.063Z,137.23
2022-11-10T08:52:07.354Z,221.15
2022-11-10T08:54:53.408Z,141.73
2022-11-10T08:57:39.946Z,183.82
2022-11-10T09:00:25.736Z,153.13
2022-11-10T09:03:19.327Z,161.65
2022-11-10T09:06:05.455Z,159.75
2022-11-10T09:08:51.582Z,175.68
2022-11-10T09:11:37.781Z,121.63
2022-11-10T09:14:28.073Z,140.50
2022-11-10T09:17:15.040Z,139.55
2022-11-10T09:20:04.780Z,170.85
2022-11-10T09:22:50.948Z,138.15
2022-11-10T09:25:39.093Z,113.28
2022-11-10T09:28:25.366Z,98.90
2022-11-10T09:31:13.758Z,112.78
2022-11-10T09:34:00.136Z,111.15
2022-11-10T09:36:46.855Z,100.55
2022-11-10T09:39:33.509Z,86.38
2022-11-10T09:42:37.692Z,93.90
2022-11-10T09:45:26.845Z,94.70
2022-11-10T09:48:17.769Z,96.38
2022-11-10T09:51:21.185Z,113.75
2022-11-10T09:54:40.696Z,101.65
2022-11-10T09:57:26.997Z,90.95
2022-11-10T10:00:15.295Z,101.22
2022-11-10T10:03:03.309Z,105.50
2022-11-10T10:06:11.315Z,99.05
2022-11-10T10:09:09.840Z,94.40
2022-11-10T10:12:47.249Z,99.90
2022-11-10T10:15:39.215Z,82.57
2022-11-10T10:18:31.319Z,85.43
2022-11-10T10:21:31.003Z,71.55
2022-11-10T10:24:22.183Z,83.72
2022-11-10T10:27:11.861Z,72.53
2022-11-10T10:29:57.596Z,89.90
2022-11-10T10:32:44.004Z,87.10
2022-11-10T10:35:31.422Z,81.72
2022-11-10T10:38:28.436Z,83.45
2022-11-10T10:41:26.908Z,84.57
2022-11-10T10:44:17.545Z,83.55
2022-11-10T10:47:04.733Z,92.03
2022-11-10T10:49:50.616Z,94.80
2022-11-10T10:52:37.335Z,93.22
2022-11-10T10:55:23.775Z,86.47
2022-11-10T10:58:48.934Z,81.60
2022-11-10T11:01:38.191Z,82.70
2022-11-10T11:04:35.706Z,81.45
2022-11-10T11:07:25.166Z,87.85
2022-11-10T11:10:21.901Z,92.03
2022-11-10T11:13:16.448Z,90.80
2022-11-10T11:16:08.748Z,85.40
2022-11-10T11:18:54.843Z,83.38
2022-11-10T11:22:00.588Z,85.50
2022-11-10T11:25:26.283Z,95.88
2022-11-10T11:28:21.580Z,101.05
2022-11-10T11:31:23.309Z,81.60
2022-11-10T11:34:33.927Z,83.85
2022-11-10T11:37:50.811Z,87.50
2022-11-10T11:40:44.529Z,73.40
2022-11-10T11:43:51.648Z,73.40
2022-11-10T11:46:54.258Z,68.95
2022-11-10T11:50:22.553Z,68.78
2022-11-10T11:53:34.649Z,74.20
2022-11-10T11:56:28.548Z,62.38
2022-11-10T11:59:43.088Z,64.05
2022-11-10T12:02:53.609Z,67.75
2022-11-10T12:05:50.985Z,62.58
2022-11-10T12:08:54.356Z,69.00
2022-11-10T12:11:59.556Z,75.68
2022-11-10T12:15:09.763Z,67.82
2022-11-10T12:18:20.918Z,63.20
2022-11-10T12:24:15.623Z,69.50
2022-11-10T12:27:24.101Z,81.00
2022-11-10T12:30:11.312Z,77.80
2022-11-10T12:33:15.097Z,105.28
2022-11-10T12:36:01.444Z,148.23
2022-11-10T12:39:15.774Z,74.75
2022-11-10T12:42:01.872Z,72.43
2022-11-10T12:44:56.446Z,67.32
2022-11-10T12:47:44.380Z,73.43
2022-11-10T12:50:34.523Z,61.75
2022-11-10T12:53:25.446Z,59.20
2022-11-10T12:56:24.797Z,61.50
2022-11-10T12:59:14.450Z,66.40
2022-11-10T13:02:06.613Z,72.90
2022-11-10T13:05:25.226Z,100.18
2022-11-10T13:08:28.272Z,79.85
2022-11-10T13:11:15.383Z,66.00
2022-11-10T13:14:05.442Z,58.83
2022-11-10T13:16:54.382Z,121.35
2022-11-10T13:19:49.449Z,64.73
2022-11-10T13:22:40.983Z,75.30
2022-11-10T13:25:37.515Z,129.43
2022-11-10T13:28:48.501Z,221.15
2022-11-10T13:31:40.024Z,326.42
2022-11-10T13:34:30.775Z,295.38
2022-11-10T13:37:35.140Z,226.20
2022-11-10T13:40:24.066Z,73.53
2022-11-10T13:43:19.968Z,83.53
2022-11-10T13:46:06.435Z,83.22
2022-11-10T13:49:15.680Z,213.63
2022-11-10T13:52:32.865Z,114.50
2022-11-10T13:55:27.601Z,118.07
2022-11-10T13:58:26.284Z,135.07
2022-11-10T14:01:15.585Z,137.57
2022-11-10T14:04:02.423Z,143.77
2022-11-10T14:06:52.328Z,167.27
2022-11-10T14:09:43.165Z,158.77
2022-11-10T14:12:39.848Z,114.43
2022-11-10T14:15:35.353Z,151.10
2022-11-10T14:18:25.342Z,167.77
2022-11-10T14:21:12.774Z,150.68
2022-11-10T14:24:15.878Z,166.07
2022-11-10T14:27:06.984Z,156.18
2022-11-10T14:30:15.185Z,193.55
2022-11-10T14:33:24.695Z,187.75
2022-11-10T14:36:11.865Z,169.13
2022-11-10T14:38:58.307Z,152.27
2022-11-10T14:41:48.070Z,192.02
2022-11-10T14:44:34.790Z,167.93
2022-11-10T14:47:31.360Z,148.80
2022-11-10T14:50:22.786Z,129.50
2022-11-10T14:53:19.556Z,115.40
2022-11-10T14:56:07.680Z,120.43
2022-11-10T14:58:53.735Z,131.13
2022-11-10T15:01:40.892Z,141.77
2022-11-10T15:04:29.560Z,186.30
2022-11-10T15:07:16.283Z,134.30
2022-11-10T15:10:24.118Z,161.70
2022-11-10T15:13:13.353Z,111.63
2022-11-10T15:16:28.177Z,135.00
2022-11-10T15:19:36.308Z,117.72
2022-11-10T15:22:35.860Z,115.88
2022-11-10T15:25:23.332Z,94.00
2022-11-10T15:28:13.129Z,106.47
2022-11-10T15:31:04.030Z,101.07
2022-11-10T15:33:55.788Z,95.78
2022-11-10T15:39:30.281Z,108.55
2022-11-10T15:42:18.560Z,90.05
2022-11-10T15:45:05.203Z,103.05
2022-11-10T15:47:51.152Z,111.35
2022-11-10T15:50:37.415Z,113.68
2022-11-10T15:53:28.302Z,104.00
2022-11-10T15:56:18.504Z,98.00
2022-11-10T15:59:04.519Z,188.25
2022-11-10T16:01:50.559Z,126.85
2022-11-10T16:04:37.658Z,124.20
2022-11-10T16:07:24.059Z,126.90
2022-11-10T16:10:10.622Z,122.72
2022-11-10T16:12:57.136Z,98.68
2022-11-10T16:15:43.502Z,114.95
2022-11-10T16:18:30.361Z,126.72
2022-11-10T16:21:21.642Z,147.65
2022-11-10T16:24:08.484Z,190.48
2022-11-10T16:26:54.677Z,201.75
2022-11-10T16:29:41.806Z,298.95
2022-11-10T16:32:27.904Z,95.25
2022-11-10T16:35:14.497Z,221.80
2022-11-10T16:38:00.487Z,171.25
2022-11-10T16:40:54.705Z,172.13
2022-11-10T16:43:41.032Z,179.10
2022-11-10T16:46:29.737Z,168.93
2022-11-10T16:49:25.707Z,160.10
2022-11-10T16:52:15.663Z,150.00
2022-11-10T16:55:01.957Z,166.00
2022-11-10T16:57:48.900Z,191.23
2022-11-10T17:00:35.717Z,202.10
2022-11-10T17:03:47.971Z,192.65
2022-11-10T17:06:52.194Z,218.98
2022-11-10T17:09:38.594Z,203.38
2022-11-10T17:12:24.997Z,192.30
2022-11-10T17:15:15.479Z,189.90
2022-11-10T17:18:04.745Z,184.98
2022-11-10T17:20:52.197Z,229.10
2022-11-10T17:23:38.555Z,165.82
2022-11-10T17:26:24.520Z,169.93
2022-11-10T17:29:21.157Z,220.32
2022-11-10T17:32:07.441Z,225.85
2022-11-10T17:34:53.699Z,248.10
2022-11-10T17:37:40.517Z,160.60
2022-11-10T17:40:27.196Z,237.65
2022-11-10T17:43:13.736Z,234.60
2022-11-10T17:45:59.961Z,259.20
2022-11-10T17:48:48.004Z,207.32
2022-11-10T17:51:34.842Z,212.50
2022-11-10T17:54:20.865Z,185.35
2022-11-10T17:57:09.708Z,217.50
2022-11-10T17:59:56.314Z,228.10
2022-11-10T18:02:43.441Z,233.93
2022-11-10T18:05:29.517Z,222.75
2022-11-10T18:08:16.356Z,268.98
2022-11-10T18:11:02.617Z,261.13
2022-11-10T18:13:48.649Z,193.20
2022-11-10T18:16:34.874Z,257.80
2022-11-10T18:19:21.469Z,250.80
2022-11-10T18:22:07.732Z,204.52
2022-11-10T18:24:53.723Z,214.27
2022-11-10T18:27:39.962Z,216.35
2022-11-10T18:30:25.843Z,383.95
2022-11-10T18:33:12.481Z,286.58
2022-11-10T18:35:59.228Z,267.20
2022-11-10T18:38:45.582Z,244.70
2022-11-10T18:41:49.903Z,243.25
2022-11-10T18:44:37.786Z,228.27
2022-11-10T18:47:23.928Z,244.18
2022-11-10T18:50:10.130Z,241.68
2022-11-10T18:52:57.145Z,191.15
2022-11-10T18:55:53.207Z,248.45
2022-11-10T18:58:39.114Z,259.83
2022-11-10T19:01:25.458Z,266.52
2022-11-10T19:04:12.145Z,270.67
2022-11-10T19:06:58.459Z,261.83
2022-11-10T19:09:46.004Z,242.13
2022-11-10T19:12:32.175Z,210.38
2022-11-10T19:15:20.536Z,256.77
2022-11-10T19:18:10.847Z,232.55
2022-11-10T19:20:57.267Z,244.85
2022-11-10T19:23:43.270Z,217.20
2022-11-10T19:26:35.269Z,231.88
2022-11-10T19:29:21.396Z,235.10
2022-11-10T19:32:07.812Z,232.52
2022-11-10T19:34:55.931Z,237.00
2022-11-10T19:37:42.453Z,231.68
2022-11-10T19:40:28.644Z,227.23
2022-11-10T19:43:14.786Z,209.13
2022-11-10T19:46:05.130Z,201.50
2022-11-10T19:48:51.772Z,198.85
2022-11-10T19:51:39.762Z,214.80
2022-11-10T19:54:25.923Z,250.30
2022-11-10T19:57:12.108Z,228.45
2022-11-10T19:59:58.379Z,232.70
2022-11-10T20:02:45.821Z,237.02
2022-11-10T20:05:33.224Z,240.93
2022-11-10T20:08:19.147Z,211.45
2022-11-10T20:11:13.115Z,202.23
2022-11-10T20:14:01.471Z,251.60
2022-11-10T20:16:50.353Z,231.45
2022-11-10T20:19:41.191Z,195.88
2022-11-10T20:22:27.621Z,194.50
2022-11-10T20:25:13.954Z,202.43
2022-11-10T20:28:06.062Z,199.57
2022-11-10T20:30:55.416Z,171.30
2022-11-10T20:33:41.661Z,166.00
2022-11-10T20:36:29.543Z,141.55
2022-11-10T20:39:15.700Z,121.85
2022-11-10T20:42:01.632Z,103.43
2022-11-10T20:44:47.859Z,121.18
2022-11-10T20:47:34.438Z,137.52
2022-11-10T20:50:24.376Z,116.72
2022-11-10T20:53:10.885Z,127.63
2022-11-10T20:56:02.211Z,122.80
2022-11-10T20:58:49.270Z,79.38
2022-11-10T21:01:37.878Z,119.57
2022-11-10T21:04:24.317Z,113.13
2022-11-10T21:07:10.824Z,102.40
2022-11-10T21:09:57.398Z,95.63
2022-11-10T21:12:50.007Z,102.80
2022-11-10T21:15:39.530Z,113.30
2022-11-10T21:18:33.739Z,108.10
2022-11-10T21:21:21.952Z,113.78
2022-11-10T21:24:09.505Z,154.18
2022-11-10T21:26:58.193Z,130.25
2022-11-10T21:29:44.457Z,149.18
2022-11-10T21:32:30.623Z,156.85
2022-11-10T21:35:16.847Z,140.52
2022-11-10T21:38:03.567Z,152.55
2022-11-10T21:40:49.716Z,139.10
2022-11-10T21:43:38.865Z,134.00
2022-11-10T21:46:24.895Z,146.18
2022-11-10T21:49:10.938Z,132.63
2022-11-10T21:51:57.496Z,162.32
2022-11-10T21:54:43.715Z,182.30
2022-11-10T21:57:30.133Z,153.88
2022-11-10T22:00:16.873Z,146.25
2022-11-10T22:03:03.872Z,139.02
2022-11-10T22:05:50.112Z,139.93
2022-11-10T22:08:37.092Z,147.73
2022-11-10T22:12:03.190Z,130.75
2022-11-10T22:15:08.934Z,152.68
2022-11-10T22:18:16.195Z,206.45
2022-11-10T22:21:03.166Z,227.07
2022-11-10T22:24:07.475Z,209.00
2022-11-10T22:27:00.802Z,228.23
2022-11-10T22:29:46.802Z,240.88
2022-11-10T22:32:33.593Z,242.48
2022-11-10T22:35:58.197Z,214.30
2022-11-10T22:38:44.433Z,222.43
2022-11-10T22:41:50.054Z,235.30
2022-11-10T22:44:36.553Z,226.65
2022-11-10T22:47:22.497Z,240.25
2022-11-10T22:50:08.808Z,225.48
2022-11-10T22:52:54.927Z,240.38
2022-11-10T22:55:41.131Z,205.32
2022-11-10T22:58:27.699Z,239.70
2022-11-10T23:01:14.001Z,233.50
2022-11-10T23:04:00.953Z,248.00
2022-11-10T23:06:47.288Z,251.82
2022-11-10T23:09:34.905Z,241.55
2022-11-10T23:12:20.774Z,223.73
2022-11-10T23:15:07.475Z,211.95
2022-11-10T23:17:54.510Z,225.25
2022-11-10T23:20:40.832Z,216.20
2022-11-10T23:23:32.063Z,192.10
2022-11-10T23:26:20.462Z,193.90
2022-11-10T23:29:06.594Z,202.85
2022-11-10T23:31:54.841Z,200.70
2022-11-10T23:34:59.398Z,207.68
2022-11-10T23:37:45.624Z,194.77
2022-11-10T23:40:32.306Z,171.65
2022-11-10T23:43:18.392Z,198.20
2022-11-10T23:46:08.129Z,195.82
2022-11-10T23:48:54.362Z,177.65
2022-11-10T23:51:41.303Z,189.95
2022-11-10T23:54:27.210Z,180.10
2022-11-10T23:57:13.551Z,194.75
2022-11-10T23:59:59.627Z,186.05
